createdAt,value
2022-10-23T00:01:00.279Z,9.38
2022-10-23T00:03:27.145Z,10.63
2022-10-23T00:05:53.708Z,10.00
2022-10-23T00:08:20.221Z,9.70
2022-10-23T00:10:46.803Z,9.68
2022-10-23T00:13:13.377Z,9.13
2022-10-23T00:15:39.991Z,9.02
2022-10-23T00:18:06.566Z,9.50
2022-10-23T00:20:33.101Z,8.95
2022-10-23T00:22:59.647Z,9.45
2022-10-23T00:25:26.208Z,9.52
2022-10-23T00:27:52.723Z,9.23
2022-10-23T00:30:19.300Z,8.40
2022-10-23T00:32:45.850Z,8.43
2022-10-23T00:35:12.404Z,9.00
2022-10-23T00:37:38.957Z,8.98
2022-10-23T00:40:06.256Z,9.35
2022-10-23T00:42:32.918Z,9.40
2022-10-23T00:45:33.513Z,9.27
2022-10-23T00:48:01.886Z,9.50
2022-10-23T00:50:31.482Z,9.95
2022-10-23T00:53:00.622Z,9.85
2022-10-23T00:55:27.960Z,10.93
2022-10-23T00:57:54.907Z,9.98
2022-10-23T01:00:28.072Z,12.43
2022-10-23T01:02:56.483Z,12.27
2022-10-23T01:05:30.400Z,14.07
2022-10-23T01:08:06.312Z,12.93
2022-10-23T01:10:56.996Z,12.85
2022-10-23T01:13:29.565Z,11.85
2022-10-23T01:16:16.761Z,11.48
2022-10-23T01:18:51.216Z,11.40
2022-10-23T01:21:29.248Z,11.10
2022-10-23T01:24:20.555Z,11.07
2022-10-23T01:27:14.446Z,11.02
2022-10-23T01:29:50.415Z,11.30
2022-10-23T01:32:19.982Z,11.48
2022-10-23T01:34:52.639Z,9.93
2022-10-23T01:37:25.273Z,9.90
2022-10-23T01:39:55.441Z,9.50
2022-10-23T01:42:28.961Z,10.55
2022-10-23T01:45:09.638Z,9.93
2022-10-23T01:47:37.092Z,9.95
2022-10-23T01:50:06.275Z,10.00
2022-10-23T01:52:32.864Z,9.90
2022-10-23T01:55:01.752Z,9.85
2022-10-23T01:57:31.187Z,9.40
2022-10-23T02:00:03.735Z,10.65
2022-10-23T02:02:33.781Z,8.88
2022-10-23T02:05:12.051Z,9.85
2022-10-23T02:07:38.780Z,9.93
2022-10-23T02:10:08.152Z,11.13
2022-10-23T02:13:04.349Z,10.23
2022-10-23T02:15:45.342Z,10.15
2022-10-23T02:18:21.085Z,9.45
2022-10-23T02:21:16.480Z,9.75
2022-10-23T02:23:51.404Z,10.50
2022-10-23T02:26:34.350Z,11.32
2022-10-23T02:29:18.216Z,11.15
2022-10-23T02:31:45.272Z,10.68
2022-10-23T02:34:11.874Z,11.45
2022-10-23T02:36:38.400Z,11.63
2022-10-23T02:39:05.758Z,13.00
2022-10-23T02:41:51.257Z,12.10
2022-10-23T02:44:23.692Z,12.18
2022-10-23T02:46:52.819Z,11.52
2022-10-23T02:49:26.532Z,13.55
2022-10-23T02:52:01.678Z,12.27
2022-10-23T02:54:37.074Z,12.40
2022-10-23T02:57:12.646Z,12.73
2022-10-23T03:00:00.860Z,11.25
2022-10-23T03:02:33.134Z,11.27
2022-10-23T03:05:01.676Z,11.10
2022-10-23T03:07:28.384Z,13.02
2022-10-23T03:09:54.889Z,13.52
2022-10-23T03:12:21.445Z,10.90
2022-10-23T03:14:48.012Z,10.85
2022-10-23T03:17:14.907Z,11.05
2022-10-23T03:19:41.407Z,10.05
2022-10-23T03:22:07.987Z,10.95
2022-10-23T03:24:34.517Z,11.85
2022-10-23T03:27:00.990Z,11.98
2022-10-23T03:29:27.524Z,13.70
2022-10-23T03:31:55.581Z,13.88
2022-10-23T03:34:22.193Z,13.48
2022-10-23T03:36:48.698Z,13.95
2022-10-23T03:39:15.248Z,14.52
2022-10-23T03:41:41.784Z,14.63
2022-10-23T03:44:08.580Z,14.60
2022-10-23T03:46:35.143Z,12.85
2022-10-23T03:49:01.657Z,12.75
2022-10-23T03:51:28.302Z,12.23
2022-10-23T03:53:54.965Z,11.82
2022-10-23T03:56:21.599Z,11.35
2022-10-23T03:58:48.243Z,11.98
2022-10-23T04:01:15.117Z,12.68
2022-10-23T04:03:41.649Z,12.15
2022-10-23T04:06:08.230Z,11.38
2022-10-23T04:08:34.810Z,13.45
2022-10-23T04:11:01.335Z,11.88
2022-10-23T04:13:27.836Z,11.80
2022-10-23T04:15:54.390Z,12.05
2022-10-23T04:18:21.002Z,12.50
2022-10-23T04:20:49.201Z,13.10
2022-10-23T04:23:16.076Z,15.15
2022-10-23T04:25:42.698Z,13.68
2022-10-23T04:28:09.266Z,14.07
2022-10-23T04:30:35.871Z,14.07
2022-10-23T04:33:02.455Z,14.40
2022-10-23T04:35:29.028Z,13.32
2022-10-23T04:37:55.553Z,13.45
2022-10-23T04:40:22.082Z,14.75
2022-10-23T04:42:48.634Z,15.65
2022-10-23T04:45:15.272Z,14.70
2022-10-23T04:47:41.797Z,13.50
2022-10-23T04:50:08.302Z,13.68
2022-10-23T04:52:34.815Z,14.60
2022-10-23T04:55:01.343Z,14.93
2022-10-23T04:57:27.887Z,15.50
2022-10-23T04:59:54.392Z,15.35
2022-10-23T05:02:20.947Z,10.20
2022-10-23T05:04:47.464Z,9.70
2022-10-23T05:07:14.036Z,9.23
2022-10-23T05:09:40.576Z,8.10
2022-10-23T05:12:07.081Z,8.10
2022-10-23T05:14:33.614Z,8.38
2022-10-23T05:17:07.829Z,7.22
2022-10-23T05:19:41.732Z,5.97
2022-10-23T05:22:09.696Z,7.32
2022-10-23T05:24:36.351Z,6.18
2022-10-23T05:27:03.012Z,5.13
2022-10-23T05:29:29.601Z,5.25
2022-10-23T05:32:00.874Z,4.70
2022-10-23T05:34:30.042Z,5.30
2022-10-23T05:36:56.896Z,6.25
2022-10-23T05:39:23.673Z,5.60
2022-10-23T05:41:51.253Z,5.57
2022-10-23T05:44:17.803Z,6.22
2022-10-23T05:46:44.524Z,5.72
2022-10-23T05:49:11.023Z,5.82
2022-10-23T05:51:38.767Z,6.28
2022-10-23T05:54:08.308Z,7.10
2022-10-23T05:56:41.599Z,5.05
2022-10-23T05:59:08.966Z,5.07
2022-10-23T06:01:36.266Z,6.03
2022-10-23T06:04:04.202Z,5.88
2022-10-23T06:06:30.867Z,5.13
2022-10-23T06:08:57.474Z,6.70
2022-10-23T06:11:24.051Z,7.60
2022-10-23T06:13:50.741Z,6.32
2022-10-23T06:16:20.402Z,5.45
2022-10-23T06:18:47.854Z,6.50
2022-10-23T06:21:15.395Z,6.75
2022-10-23T06:23:43.768Z,5.50
2022-10-23T06:26:12.647Z,6.63
2022-10-23T06:28:40.238Z,6.13
2022-10-23T06:31:08.322Z,5.32
2022-10-23T06:33:35.565Z,7.05
2022-10-23T06:36:03.636Z,5.50
2022-10-23T06:38:36.585Z,5.95
2022-10-23T06:41:04.151Z,6.25
2022-10-23T06:43:30.685Z,6.07
2022-10-23T06:46:00.981Z,6.50
2022-10-23T06:48:27.518Z,7.03
2022-10-23T06:50:54.172Z,5.93
2022-10-23T06:53:20.755Z,7.85
2022-10-23T06:55:50.073Z,5.82
2022-10-23T07:00:46.028Z,5.80
2022-10-23T07:03:13.798Z,6.70
2022-10-23T07:05:41.055Z,8.18
2022-10-23T07:08:07.593Z,8.15
2022-10-23T07:10:34.602Z,9.75
2022-10-23T07:13:01.453Z,9.13
2022-10-23T07:15:28.085Z,8.35
2022-10-23T07:17:55.099Z,7.28
2022-10-23T07:20:22.309Z,9.57
2022-10-23T07:22:56.779Z,9.65
2022-10-23T07:25:25.911Z,9.18
2022-10-23T07:27:55.380Z,8.73
2022-10-23T07:30:22.037Z,8.45
2022-10-23T07:32:48.574Z,8.25
2022-10-23T07:37:47.141Z,9.88
2022-10-23T07:40:13.891Z,11.48
2022-10-23T07:42:40.718Z,11.60
2022-10-23T07:45:08.731Z,10.27
2022-10-23T07:47:35.432Z,10.95
2022-10-23T07:50:01.964Z,11.23
2022-10-23T07:52:32.019Z,10.80
2022-10-23T07:55:01.939Z,10.23
2022-10-23T07:57:28.458Z,9.65
2022-10-23T07:59:55.038Z,9.88
2022-10-23T08:02:21.734Z,10.13
2022-10-23T08:04:51.120Z,8.93
2022-10-23T08:07:17.720Z,7.75
2022-10-23T08:09:44.285Z,7.82
2022-10-23T08:12:10.992Z,7.85
2022-10-23T08:14:37.601Z,7.00
2022-10-23T08:17:05.470Z,7.45
2022-10-23T08:19:32.329Z,7.50
2022-10-23T08:21:58.852Z,7.15
2022-10-23T08:24:25.442Z,7.18
2022-10-23T08:26:51.963Z,7.40
2022-10-23T08:29:18.552Z,7.03
2022-10-23T08:31:45.169Z,7.18
2022-10-23T08:34:11.805Z,7.40
2022-10-23T08:36:39.358Z,6.47
2022-10-23T08:39:06.619Z,6.75
2022-10-23T08:41:47.936Z,6.80
2022-10-23T08:44:32.810Z,7.13
2022-10-23T08:47:06.722Z,6.95
2022-10-23T08:49:47.571Z,6.60
2022-10-23T08:52:35.415Z,6.55
2022-10-23T08:55:15.136Z,6.90
2022-10-23T08:57:51.741Z,6.20
2022-10-23T09:00:18.739Z,6.13
2022-10-23T09:02:48.253Z,6.07
2022-10-23T09:05:16.562Z,6.47
2022-10-23T09:08:09.777Z,6.20
2022-10-23T09:10:55.072Z,5.70
2022-10-23T09:13:48.212Z,6.00
2022-10-23T09:16:25.513Z,6.50
2022-10-23T09:18:56.212Z,5.93
2022-10-23T09:21:30.327Z,6.15
2022-10-23T09:23:57.020Z,5.95
2022-10-23T09:26:23.656Z,6.47
2022-10-23T09:28:55.326Z,5.90
2022-10-23T09:31:21.839Z,5.47
2022-10-23T09:34:01.786Z,5.93
2022-10-23T09:36:29.553Z,5.70
2022-10-23T09:38:58.963Z,5.72
2022-10-23T09:41:37.132Z,5.57
2022-10-23T09:44:15.838Z,5.25
2022-10-23T09:46:45.109Z,5.07
2022-10-23T09:49:26.996Z,4.93
2022-10-23T09:52:01.954Z,4.75
2022-10-23T09:54:32.186Z,5.00
2022-10-23T09:57:05.723Z,3.90
2022-10-23T09:59:33.958Z,4.07
2022-10-23T10:02:05.714Z,4.40
2022-10-23T10:04:40.770Z,3.72
2022-10-23T10:07:19.431Z,4.55
2022-10-23T10:09:46.359Z,4.78
2022-10-23T10:12:34.631Z,4.30
2022-10-23T10:15:28.469Z,3.58
2022-10-23T10:18:24.294Z,3.67
2022-10-23T10:21:08.891Z,3.47
2022-10-23T10:24:01.863Z,3.58
2022-10-23T10:26:51.092Z,3.28
2022-10-23T10:29:36.058Z,3.22
2022-10-23T10:32:06.030Z,3.60
2022-10-23T10:34:41.947Z,3.42
2022-10-23T10:37:48.618Z,3.80
2022-10-23T10:40:41.061Z,3.75
2022-10-23T10:43:40.535Z,4.50
2022-10-23T10:46:41.236Z,3.40
2022-10-23T10:49:16.192Z,2.55
2022-10-23T10:52:00.738Z,3.22
2022-10-23T10:54:57.628Z,3.20
2022-10-23T10:57:43.089Z,3.22
2022-10-23T11:00:15.870Z,3.00
2022-10-23T11:02:49.931Z,3.42
2022-10-23T11:05:29.331Z,2.65
2022-10-23T11:08:00.470Z,3.20
2022-10-23T11:10:28.930Z,2.93
2022-10-23T11:12:56.960Z,2.80
2022-10-23T11:15:35.283Z,2.55
2022-10-23T11:18:05.987Z,3.13
2022-10-23T11:21:00.823Z,2.83
2022-10-23T11:23:36.533Z,2.63
2022-10-23T11:26:18.824Z,2.80
2022-10-23T11:29:23.179Z,3.13
2022-10-23T11:32:05.940Z,2.88
2022-10-23T11:34:44.154Z,2.53
2022-10-23T11:37:16.663Z,2.90
2022-10-23T11:40:01.223Z,2.90
2022-10-23T11:42:49.147Z,2.90
2022-10-23T11:45:38.413Z,2.85
2022-10-23T11:48:14.064Z,3.10
2022-10-23T11:50:46.292Z,3.22
2022-10-23T11:53:24.943Z,3.00
2022-10-23T11:56:05.300Z,3.65
2022-10-23T11:58:56.440Z,3.85
2022-10-23T12:01:32.525Z,3.22
2022-10-23T12:04:25.157Z,3.00
2022-10-23T12:07:01.464Z,2.88
2022-10-23T12:09:36.118Z,3.65
2022-10-23T12:12:08.612Z,3.60
2022-10-23T12:14:49.715Z,3.20
2022-10-23T12:17:31.489Z,3.20
2022-10-23T12:20:13.330Z,3.25
2022-10-23T12:22:58.605Z,2.78
2022-10-23T12:25:34.067Z,3.03
2022-10-23T12:28:05.512Z,3.35
2022-10-23T12:31:03.329Z,4.05
2022-10-23T12:33:41.321Z,4.13
2022-10-23T12:36:31.975Z,3.58
2022-10-23T12:38:58.791Z,3.45
2022-10-23T12:41:30.941Z,4.03
2022-10-23T12:44:01.382Z,3.70
2022-10-23T12:46:41.101Z,4.30
2022-10-23T12:49:22.750Z,5.05
2022-10-23T12:52:04.373Z,5.07
2022-10-23T12:54:33.222Z,4.93
2022-10-23T12:56:59.756Z,4.70
2022-10-23T12:59:31.715Z,4.15
2022-10-23T13:01:58.390Z,4.45
2022-10-23T13:04:31.367Z,4.03
2022-10-23T13:07:03.098Z,4.45
2022-10-23T13:09:34.683Z,3.78
2022-10-23T13:12:04.882Z,4.47
2022-10-23T13:14:40.788Z,4.10
2022-10-23T13:17:12.007Z,4.03
2022-10-23T13:19:38.639Z,4.30
2022-10-23T13:22:18.572Z,4.72
2022-10-23T13:24:45.198Z,4.65
2022-10-23T13:27:34.216Z,4.35
2022-10-23T13:30:01.030Z,4.15
2022-10-23T13:32:30.373Z,5.15
2022-10-23T13:35:10.131Z,4.55
2022-10-23T13:40:25.741Z,5.20
2022-10-23T13:42:55.609Z,4.70
2022-10-23T13:45:24.744Z,4.50
2022-10-23T13:47:51.581Z,4.97
2022-10-23T13:50:19.470Z,4.47
2022-10-23T13:52:46.250Z,4.47
2022-10-23T13:55:23.513Z,5.63
2022-10-23T13:57:50.196Z,5.05
2022-10-23T14:00:17.286Z,5.38
2022-10-23T14:02:44.527Z,4.93
2022-10-23T14:05:12.214Z,4.63
2022-10-23T14:07:38.843Z,4.72
2022-10-23T14:10:05.865Z,4.60
2022-10-23T14:12:39.300Z,4.80
2022-10-23T14:15:06.705Z,4.65
2022-10-23T14:17:35.061Z,4.93
2022-10-23T14:20:04.015Z,4.72
2022-10-23T14:22:32.412Z,5.15
2022-10-23T14:24:58.953Z,4.78
2022-10-23T14:27:25.560Z,5.82
2022-10-23T14:29:52.174Z,4.97
2022-10-23T14:32:18.762Z,6.07
2022-10-23T14:34:51.428Z,5.90
2022-10-23T14:37:19.498Z,5.47
2022-10-23T14:39:50.010Z,5.55
2022-10-23T14:42:17.299Z,5.03
2022-10-23T14:44:44.050Z,5.88
2022-10-23T14:47:10.567Z,5.38
2022-10-23T14:49:37.147Z,5.65
2022-10-23T14:52:03.799Z,5.68
2022-10-23T14:54:33.050Z,5.70
2022-10-23T14:56:59.621Z,5.68
2022-10-23T14:59:26.204Z,5.45
2022-10-23T15:04:21.262Z,7.93
2022-10-23T15:06:47.828Z,6.32
2022-10-23T15:09:15.021Z,6.40
2022-10-23T15:11:41.682Z,5.88
2022-10-23T15:14:08.260Z,5.82
2022-10-23T15:16:41.321Z,6.15
2022-10-23T15:19:17.166Z,5.80
2022-10-23T15:21:46.140Z,6.45
2022-10-23T15:24:12.717Z,6.47
2022-10-23T15:26:41.792Z,6.50
2022-10-23T15:29:08.815Z,6.03
2022-10-23T15:31:37.537Z,6.45
2022-10-23T15:34:08.762Z,5.53
2022-10-23T15:36:35.470Z,6.43
2022-10-23T15:39:03.649Z,6.32
2022-10-23T15:41:32.212Z,7.57
2022-10-23T15:43:59.919Z,7.28
2022-10-23T15:46:26.535Z,6.78
2022-10-23T15:48:53.872Z,9.63
2022-10-23T15:51:20.649Z,8.57
2022-10-23T15:53:47.515Z,6.07
2022-10-23T15:56:14.083Z,3.05
2022-10-23T15:58:40.653Z,4.10
2022-10-23T16:01:07.457Z,4.03
2022-10-23T16:03:35.839Z,3.50
2022-10-23T16:06:07.307Z,3.60
2022-10-23T16:08:33.981Z,2.63
2022-10-23T16:11:00.506Z,3.47
2022-10-23T16:13:27.333Z,20.27
2022-10-23T16:15:54.389Z,11.75
2022-10-23T16:18:22.460Z,21.95
2022-10-23T16:20:51.022Z,17.98
2022-10-23T16:23:17.784Z,4.72
2022-10-23T16:25:45.972Z,6.70
2022-10-23T16:28:12.941Z,7.47
2022-10-23T16:30:43.377Z,8.70
2022-10-23T16:33:10.201Z,9.40
2022-10-23T16:35:37.332Z,7.88
2022-10-23T16:38:04.062Z,8.35
2022-10-23T16:40:31.194Z,7.65
2022-10-23T16:42:58.576Z,5.72
2022-10-23T16:45:25.164Z,8.25
2022-10-23T16:47:51.831Z,8.05
2022-10-23T16:50:18.465Z,8.07
2022-10-23T16:52:45.532Z,5.63
2022-10-23T16:55:12.370Z,11.75
2022-10-23T16:57:39.016Z,10.23
2022-10-23T17:00:07.120Z,10.45
2022-10-23T17:02:33.877Z,8.35
2022-10-23T17:05:00.557Z,5.07
2022-10-23T17:07:27.156Z,4.05
2022-10-23T17:09:53.726Z,3.17
2022-10-23T17:12:20.326Z,6.45
2022-10-23T17:14:46.862Z,6.20
2022-10-23T17:17:13.694Z,7.55
2022-10-23T17:19:46.012Z,4.80
2022-10-23T17:22:14.209Z,7.03
2022-10-23T17:24:42.415Z,7.15
2022-10-23T17:27:09.240Z,4.90
2022-10-23T17:29:36.069Z,5.20
2022-10-23T17:32:03.161Z,7.25
2022-10-23T17:34:29.717Z,4.78
2022-10-23T17:36:56.830Z,7.72
2022-10-23T17:39:26.754Z,4.18
2022-10-23T17:41:54.104Z,6.72
2022-10-23T17:44:20.881Z,4.78
2022-10-23T17:46:53.298Z,5.00
2022-10-23T17:49:20.727Z,4.20
2022-10-23T17:51:54.182Z,4.20
2022-10-23T17:54:21.218Z,4.47
2022-10-23T17:56:47.831Z,5.43
2022-10-23T17:59:16.134Z,4.22
2022-10-23T18:01:52.423Z,4.80
2022-10-23T18:04:20.962Z,4.07
2022-10-23T18:06:50.488Z,4.78
2022-10-23T18:09:17.355Z,5.90
2022-10-23T18:11:48.171Z,4.68
2022-10-23T18:14:17.124Z,4.40
2022-10-23T18:16:45.620Z,4.20
2022-10-23T18:19:12.652Z,5.18
2022-10-23T18:21:40.196Z,5.38
2022-10-23T18:24:06.823Z,5.07
2022-10-23T18:26:37.840Z,5.00
2022-10-23T18:29:07.851Z,3.75
2022-10-23T18:31:37.158Z,5.57
2022-10-23T18:34:09.081Z,6.15
2022-10-23T18:36:38.720Z,3.60
2022-10-23T18:39:06.871Z,3.55
2022-10-23T18:41:35.850Z,3.25
2022-10-23T18:44:03.094Z,3.05
2022-10-23T18:46:29.684Z,4.60
2022-10-23T18:48:56.323Z,3.47
2022-10-23T18:51:25.879Z,6.72
2022-10-23T18:53:52.924Z,3.58
2022-10-23T18:56:23.552Z,3.97
2022-10-23T18:58:51.522Z,3.65
2022-10-23T19:01:19.026Z,4.18
2022-10-23T19:03:46.286Z,3.20
2022-10-23T19:06:13.623Z,3.17
2022-10-23T19:08:42.751Z,3.40
2022-10-23T19:11:10.580Z,2.58
2022-10-23T19:13:39.189Z,3.25
2022-10-23T19:16:20.988Z,2.40
2022-10-23T19:18:51.881Z,3.05
2022-10-23T19:21:21.744Z,3.20
2022-10-23T19:23:49.254Z,2.67
2022-10-23T19:26:16.569Z,2.75
2022-10-23T19:28:46.170Z,2.55
2022-10-23T19:31:13.629Z,2.72
2022-10-23T19:33:40.291Z,2.67
2022-10-23T19:36:11.146Z,3.03
2022-10-23T19:38:41.592Z,2.75
2022-10-23T19:41:08.984Z,3.17
2022-10-23T19:43:37.757Z,3.35
2022-10-23T19:46:09.280Z,5.25
2022-10-23T19:48:42.580Z,4.65
2022-10-23T19:51:09.563Z,3.60
2022-10-23T19:53:36.493Z,4.00
2022-10-23T19:56:07.540Z,3.40
2022-10-23T19:58:34.279Z,3.55
2022-10-23T20:01:09.610Z,3.53
2022-10-23T20:03:36.274Z,3.40
2022-10-23T20:06:02.944Z,3.97
2022-10-23T20:08:32.699Z,3.42
2022-10-23T20:13:28.353Z,3.10
2022-10-23T20:15:55.407Z,3.50
2022-10-23T20:18:22.290Z,3.70
2022-10-23T20:20:48.983Z,3.42
2022-10-23T20:23:15.596Z,3.90
2022-10-23T20:25:42.192Z,3.72
2022-10-23T20:28:11.479Z,4.07
2022-10-23T20:33:08.611Z,3.63
2022-10-23T20:35:42.719Z,3.65
2022-10-23T20:38:09.939Z,3.80
2022-10-23T20:40:36.776Z,4.50
2022-10-23T20:43:03.618Z,4.22
2022-10-23T20:45:30.166Z,4.45
2022-10-23T20:47:56.985Z,4.18
2022-10-23T20:50:23.916Z,4.45
2022-10-23T20:52:50.849Z,4.45
2022-10-23T20:55:18.095Z,5.05
2022-10-23T20:57:45.062Z,4.40
2022-10-23T21:00:12.330Z,4.45
2022-10-23T21:02:38.979Z,5.05
2022-10-23T21:05:06.221Z,4.75
2022-10-23T21:07:32.777Z,5.55
2022-10-23T21:09:59.413Z,5.28
2022-10-23T21:12:25.936Z,4.70
2022-10-23T21:14:53.602Z,4.85
2022-10-23T21:17:20.462Z,5.28
2022-10-23T21:19:47.500Z,5.57
2022-10-23T21:22:14.082Z,4.70
2022-10-23T21:24:40.638Z,5.63
2022-10-23T21:27:07.260Z,4.80
2022-10-23T21:29:33.795Z,4.97
2022-10-23T21:32:01.636Z,5.28
2022-10-23T21:34:29.130Z,5.60
2022-10-23T21:39:44.067Z,5.63
2022-10-23T21:42:12.510Z,5.65
2022-10-23T21:44:39.179Z,5.40
2022-10-23T21:47:05.761Z,5.93
2022-10-23T21:49:32.421Z,4.90
2022-10-23T21:51:58.923Z,5.80
2022-10-23T21:54:25.531Z,5.32
2022-10-23T21:56:53.884Z,6.13
2022-10-23T21:59:24.316Z,6.05
2022-10-23T22:01:51.836Z,5.40
2022-10-23T22:04:19.896Z,5.72
2022-10-23T22:06:49.614Z,6.15
2022-10-23T22:09:19.796Z,6.75
2022-10-23T22:11:46.946Z,6.60
2022-10-23T22:14:13.418Z,5.70
2022-10-23T22:16:41.997Z,5.80
2022-10-23T22:19:13.527Z,6.10
2022-10-23T22:21:40.497Z,6.05
2022-10-23T22:24:07.765Z,6.00
2022-10-23T22:26:40.533Z,5.95
2022-10-23T22:29:12.584Z,5.85
2022-10-23T22:31:43.003Z,5.53
2022-10-23T22:34:26.677Z,5.82
2022-10-23T22:37:01.810Z,5.70
2022-10-23T22:39:28.374Z,5.45
2022-10-23T22:41:58.197Z,6.95
2022-10-23T22:44:24.754Z,5.68
2022-10-23T22:46:51.296Z,6.10
2022-10-23T22:49:17.838Z,5.63
2022-10-23T22:51:44.341Z,4.97
2022-10-23T22:54:10.867Z,5.80
2022-10-23T22:56:37.419Z,5.80
2022-10-23T22:59:04.794Z,5.68
2022-10-23T23:01:36.400Z,5.68
2022-10-23T23:04:19.483Z,5.85
2022-10-23T23:06:49.734Z,6.10
2022-10-23T23:09:18.110Z,5.22
2022-10-23T23:11:51.855Z,5.18
2022-10-23T23:14:23.280Z,5.03
2022-10-23T23:19:17.628Z,5.00
2022-10-23T23:21:44.261Z,5.30
2022-10-23T23:24:12.296Z,5.00
2022-10-23T23:26:39.137Z,4.95
2022-10-23T23:29:06.157Z,5.10
2022-10-23T23:31:32.704Z,5.40
2022-10-23T23:33:59.412Z,5.68
2022-10-23T23:36:28.162Z,5.40
2022-10-23T23:38:57.242Z,5.15
2022-10-23T23:41:25.138Z,5.68
2022-10-23T23:43:53.521Z,5.30
2022-10-23T23:46:20.163Z,5.95
2022-10-23T23:48:49.928Z,6.13
2022-10-23T23:51:19.475Z,5.07
2022-10-23T23:53:46.629Z,6.00
2022-10-23T23:56:13.909Z,5.40
2022-10-23T23:58:40.450Z,5.72
